sensor_id;sensor_type;location;lat;lon;timestamp;P1;durP1;ratioP1;P2;durP2;ratioP2
34060;SDS011;20336;-33.424;-70.638;2023-06-22T00:02:25;42.70;;;21.70;;
34060;SDS011;20336;-33.424;-70.638;2023-06-22T00:04:52;38.88;;;18.88;;
34060;SDS011;20336;-33.424;-70.638;2023-06-22T00:07:19;39.40;;;20.17;;
34060;SDS011;20336;-33.424;-70.638;2023-06-22T00:09:45;42.53;;;22.70;;
34060;SDS011;20336;-33.424;-70.638;2023-06-22T00:12:12;38.17;;;20.58;;
34060;SDS011;20336;-33.424;-70.638;2023-06-22T00:14:39;39.65;;;19.45;;
34060;SDS011;20336;-33.424;-70.638;2023-06-22T00:17:06;37.13;;;18.90;;
34060;SDS011;20336;-33.424;-70.638;2023-06-22T00:19:33;34.10;;;18.20;;
34060;SDS011;20336;-33.424;-70.638;2023-06-22T00:22:00;38.22;;;17.13;;
34060;SDS011;20336;-33.424;-70.638;2023-06-22T00:24:28;28.20;;;15.43;;
34060;SDS011;20336;-33.424;-70.638;2023-06-22T00:26:55;36.00;;;20.02;;
34060;SDS011;20336;-33.424;-70.638;2023-06-22T00:29:22;35.85;;;21.38;;
34060;SDS011;20336;-33.424;-70.638;2023-06-22T00:31:49;29.10;;;15.75;;
34060;SDS011;20336;-33.424;-70.638;2023-06-22T00:34:16;17.77;;;10.50;;
34060;SDS011;20336;-33.424;-70.638;2023-06-22T00:36:43;11.52;;;7.03;;
34060;SDS011;20336;-33.424;-70.638;2023-06-22T00:39:10;23.40;;;12.50;;
34060;SDS011;20336;-33.424;-70.638;2023-06-22T00:41:37;17.80;;;10.98;;
34060;SDS011;20336;-33.424;-70.638;2023-06-22T00:44:04;75.53;;;39.30;;
34060;SDS011;20336;-33.424;-70.638;2023-06-22T00:46:32;57.95;;;29.35;;
34060;SDS011;20336;-33.424;-70.638;2023-06-22T00:48:59;39.63;;;20.85;;
34060;SDS011;20336;-33.424;-70.638;2023-06-22T00:51:26;31.98;;;17.63;;
34060;SDS011;20336;-33.424;-70.638;2023-06-22T00:53:53;48.25;;;24.48;;
34060;SDS011;20336;-33.424;-70.638;2023-06-22T00:56:20;31.95;;;16.67;;
34060;SDS011;20336;-33.424;-70.638;2023-06-22T00:58:50;38.92;;;19.88;;
34060;SDS011;20336;-33.424;-70.638;2023-06-22T01:01:18;32.50;;;17.67;;
34060;SDS011;20336;-33.424;-70.638;2023-06-22T01:03:49;24.48;;;12.50;;
34060;SDS011;20336;-33.424;-70.638;2023-06-22T01:06:19;24.45;;;11.98;;
34060;SDS011;20336;-33.424;-70.638;2023-06-22T01:08:55;20.00;;;12.30;;
34060;SDS011;20336;-33.424;-70.638;2023-06-22T01:11:28;27.52;;;14.88;;
34060;SDS011;20336;-33.424;-70.638;2023-06-22T01:13:58;38.63;;;16.42;;
34060;SDS011;20336;-33.424;-70.638;2023-06-22T01:16:27;27.38;;;11.40;;
34060;SDS011;20336;-33.424;-70.638;2023-06-22T01:18:55;20.75;;;8.05;;
34060;SDS011;20336;-33.424;-70.638;2023-06-22T01:21:23;30.55;;;12.43;;
34060;SDS011;20336;-33.424;-70.638;2023-06-22T01:23:58;19.95;;;9.95;;
34060;SDS011;20336;-33.424;-70.638;2023-06-22T01:28:58;12.80;;;8.13;;
34060;SDS011;20336;-33.424;-70.638;2023-06-22T01:31:26;19.95;;;10.32;;
34060;SDS011;20336;-33.424;-70.638;2023-06-22T01:34:04;15.68;;;8.82;;
34060;SDS011;20336;-33.424;-70.638;2023-06-22T01:36:32;22.27;;;10.48;;
34060;SDS011;20336;-33.424;-70.638;2023-06-22T01:38:59;42.75;;;22.67;;
34060;SDS011;20336;-33.424;-70.638;2023-06-22T01:41:27;41.80;;;22.50;;
34060;SDS011;20336;-33.424;-70.638;2023-06-22T01:43:55;42.33;;;25.08;;
34060;SDS011;20336;-33.424;-70.638;2023-06-22T01:46:23;39.10;;;19.98;;
34060;SDS011;20336;-33.424;-70.638;2023-06-22T01:48:50;37.65;;;18.63;;
34060;SDS011;20336;-33.424;-70.638;2023-06-22T01:51:18;35.33;;;18.70;;
34060;SDS011;20336;-33.424;-70.638;2023-06-22T01:53:44;35.28;;;20.00;;
34060;SDS011;20336;-33.424;-70.638;2023-06-22T01:56:13;29.95;;;15.55;;
34060;SDS011;20336;-33.424;-70.638;2023-06-22T01:58:49;31.52;;;15.55;;
34060;SDS011;20336;-33.424;-70.638;2023-06-22T02:01:17;27.50;;;15.52;;
34060;SDS011;20336;-33.424;-70.638;2023-06-22T02:03:48;32.30;;;16.60;;
34060;SDS011;20336;-33.424;-70.638;2023-06-22T02:06:19;30.85;;;15.10;;
34060;SDS011;20336;-33.424;-70.638;2023-06-22T02:08:59;32.92;;;16.70;;
34060;SDS011;20336;-33.424;-70.638;2023-06-22T02:11:27;25.42;;;13.50;;
34060;SDS011;20336;-33.424;-70.638;2023-06-22T02:13:55;18.92;;;9.98;;
34060;SDS011;20336;-33.424;-70.638;2023-06-22T02:16:23;22.48;;;12.52;;
34060;SDS011;20336;-33.424;-70.638;2023-06-22T02:18:50;22.45;;;11.52;;
34060;SDS011;20336;-33.424;-70.638;2023-06-22T02:21:20;19.95;;;10.40;;
34060;SDS011;20336;-33.424;-70.638;2023-06-22T02:23:47;25.17;;;13.30;;
34060;SDS011;20336;-33.424;-70.638;2023-06-22T02:26:15;22.63;;;11.30;;
34060;SDS011;20336;-33.424;-70.638;2023-06-22T02:28:42;14.57;;;8.90;;
34060;SDS011;20336;-33.424;-70.638;2023-06-22T02:31:09;18.52;;;9.15;;
34060;SDS011;20336;-33.424;-70.638;2023-06-22T02:33:36;10.48;;;6.95;;
34060;SDS011;20336;-33.424;-70.638;2023-06-22T02:36:03;17.00;;;6.65;;
34060;SDS011;20336;-33.424;-70.638;2023-06-22T02:38:36;23.08;;;11.55;;
34060;SDS011;20336;-33.424;-70.638;2023-06-22T02:41:04;16.38;;;8.15;;
34060;SDS011;20336;-33.424;-70.638;2023-06-22T02:43:32;5.75;;;2.35;;
34060;SDS011;20336;-33.424;-70.638;2023-06-22T02:45:58;5.22;;;1.40;;
34060;SDS011;20336;-33.424;-70.638;2023-06-22T02:48:25;2.85;;;1.50;;
34060;SDS011;20336;-33.424;-70.638;2023-06-22T02:50:52;2.50;;;1.35;;
34060;SDS011;20336;-33.424;-70.638;2023-06-22T02:53:19;3.55;;;1.08;;
34060;SDS011;20336;-33.424;-70.638;2023-06-22T02:55:46;1.95;;;0.88;;
34060;SDS011;20336;-33.424;-70.638;2023-06-22T02:58:13;3.35;;;0.73;;
34060;SDS011;20336;-33.424;-70.638;2023-06-22T03:00:40;2.95;;;0.60;;
34060;SDS011;20336;-33.424;-70.638;2023-06-22T03:03:07;1.23;;;0.80;;
34060;SDS011;20336;-33.424;-70.638;2023-06-22T03:05:33;2.00;;;1.10;;
34060;SDS011;20336;-33.424;-70.638;2023-06-22T03:08:00;6.97;;;3.55;;
34060;SDS011;20336;-33.424;-70.638;2023-06-22T03:10:27;6.75;;;4.10;;
34060;SDS011;20336;-33.424;-70.638;2023-06-22T03:12:54;9.23;;;4.25;;
34060;SDS011;20336;-33.424;-70.638;2023-06-22T03:18:12;12.00;;;4.05;;
34060;SDS011;20336;-33.424;-70.638;2023-06-22T03:20:41;6.88;;;4.20;;
34060;SDS011;20336;-33.424;-70.638;2023-06-22T03:23:07;7.75;;;4.18;;
34060;SDS011;20336;-33.424;-70.638;2023-06-22T03:25:35;8.80;;;5.20;;
34060;SDS011;20336;-33.424;-70.638;2023-06-22T03:28:01;10.57;;;6.07;;
34060;SDS011;20336;-33.424;-70.638;2023-06-22T03:30:28;10.55;;;6.05;;
34060;SDS011;20336;-33.424;-70.638;2023-06-22T03:32:55;11.65;;;6.35;;
34060;SDS011;20336;-33.424;-70.638;2023-06-22T03:35:22;24.00;;;12.15;;
34060;SDS011;20336;-33.424;-70.638;2023-06-22T03:37:49;25.15;;;12.75;;
34060;SDS011;20336;-33.424;-70.638;2023-06-22T03:40:16;27.48;;;15.50;;
34060;SDS011;20336;-33.424;-70.638;2023-06-22T03:42:42;38.13;;;21.45;;
34060;SDS011;20336;-33.424;-70.638;2023-06-22T03:45:09;56.50;;;28.20;;
34060;SDS011;20336;-33.424;-70.638;2023-06-22T03:47:36;70.90;;;35.35;;
34060;SDS011;20336;-33.424;-70.638;2023-06-22T03:50:03;63.25;;;34.85;;
34060;SDS011;20336;-33.424;-70.638;2023-06-22T03:52:31;64.18;;;34.50;;
34060;SDS011;20336;-33.424;-70.638;2023-06-22T03:54:58;60.95;;;30.77;;
34060;SDS011;20336;-33.424;-70.638;2023-06-22T03:57:25;57.00;;;29.77;;
34060;SDS011;20336;-33.424;-70.638;2023-06-22T03:59:54;67.53;;;35.63;;
34060;SDS011;20336;-33.424;-70.638;2023-06-22T04:02:20;64.47;;;34.33;;
34060;SDS011;20336;-33.424;-70.638;2023-06-22T04:04:47;72.13;;;37.72;;
34060;SDS011;20336;-33.424;-70.638;2023-06-22T04:07:14;68.05;;;36.40;;
34060;SDS011;20336;-33.424;-70.638;2023-06-22T04:09:41;69.97;;;36.95;;
34060;SDS011;20336;-33.424;-70.638;2023-06-22T04:12:08;68.95;;;36.70;;
34060;SDS011;20336;-33.424;-70.638;2023-06-22T04:14:35;67.55;;;37.72;;
34060;SDS011;20336;-33.424;-70.638;2023-06-22T04:17:02;64.88;;;36.30;;
34060;SDS011;20336;-33.424;-70.638;2023-06-22T04:19:29;68.70;;;38.17;;
34060;SDS011;20336;-33.424;-70.638;2023-06-22T04:21:56;73.38;;;38.33;;
34060;SDS011;20336;-33.424;-70.638;2023-06-22T04:24:23;69.35;;;36.97;;
34060;SDS011;20336;-33.424;-70.638;2023-06-22T04:26:50;74.88;;;38.40;;
34060;SDS011;20336;-33.424;-70.638;2023-06-22T04:29:20;68.20;;;35.28;;
34060;SDS011;20336;-33.424;-70.638;2023-06-22T04:31:54;69.32;;;35.30;;
34060;SDS011;20336;-33.424;-70.638;2023-06-22T04:34:23;68.45;;;36.38;;
34060;SDS011;20336;-33.424;-70.638;2023-06-22T04:36:51;73.82;;;37.72;;
34060;SDS011;20336;-33.424;-70.638;2023-06-22T04:39:18;73.13;;;35.10;;
34060;SDS011;20336;-33.424;-70.638;2023-06-22T04:41:45;69.32;;;36.88;;
34060;SDS011;20336;-33.424;-70.638;2023-06-22T04:44:13;75.18;;;36.45;;
34060;SDS011;20336;-33.424;-70.638;2023-06-22T04:46:58;66.55;;;36.08;;
34060;SDS011;20336;-33.424;-70.638;2023-06-22T04:49:27;61.13;;;33.50;;
34060;SDS011;20336;-33.424;-70.638;2023-06-22T04:52:01;61.08;;;32.63;;
34060;SDS011;20336;-33.424;-70.638;2023-06-22T04:54:29;64.03;;;33.92;;
34060;SDS011;20336;-33.424;-70.638;2023-06-22T04:57:01;59.30;;;33.35;;
34060;SDS011;20336;-33.424;-70.638;2023-06-22T04:59:29;59.63;;;33.22;;
34060;SDS011;20336;-33.424;-70.638;2023-06-22T05:02:00;60.35;;;33.63;;
34060;SDS011;20336;-33.424;-70.638;2023-06-22T05:04:28;57.42;;;31.38;;
34060;SDS011;20336;-33.424;-70.638;2023-06-22T05:06:59;58.67;;;32.00;;
34060;SDS011;20336;-33.424;-70.638;2023-06-22T05:09:26;52.08;;;29.70;;
34060;SDS011;20336;-33.424;-70.638;2023-06-22T05:11:53;56.45;;;29.98;;
34060;SDS011;20336;-33.424;-70.638;2023-06-22T05:14:20;46.03;;;26.58;;
34060;SDS011;20336;-33.424;-70.638;2023-06-22T05:16:46;45.92;;;23.40;;
34060;SDS011;20336;-33.424;-70.638;2023-06-22T05:19:13;50.20;;;25.10;;
34060;SDS011;20336;-33.424;-70.638;2023-06-22T05:21:40;44.63;;;24.08;;
34060;SDS011;20336;-33.424;-70.638;2023-06-22T05:24:07;41.10;;;23.98;;
34060;SDS011;20336;-33.424;-70.638;2023-06-22T05:26:34;41.05;;;23.70;;
34060;SDS011;20336;-33.424;-70.638;2023-06-22T05:29:01;43.50;;;23.45;;
34060;SDS011;20336;-33.424;-70.638;2023-06-22T05:31:28;41.35;;;22.58;;
34060;SDS011;20336;-33.424;-70.638;2023-06-22T05:33:56;39.72;;;23.00;;
34060;SDS011;20336;-33.424;-70.638;2023-06-22T05:36:22;38.17;;;22.63;;
34060;SDS011;20336;-33.424;-70.638;2023-06-22T05:38:52;40.75;;;22.65;;
34060;SDS011;20336;-33.424;-70.638;2023-06-22T05:41:19;37.53;;;21.75;;
34060;SDS011;20336;-33.424;-70.638;2023-06-22T05:43:46;41.90;;;22.70;;
34060;SDS011;20336;-33.424;-70.638;2023-06-22T05:46:13;41.67;;;23.35;;
34060;SDS011;20336;-33.424;-70.638;2023-06-22T05:48:40;39.25;;;21.23;;
34060;SDS011;20336;-33.424;-70.638;2023-06-22T05:51:10;37.30;;;21.42;;
34060;SDS011;20336;-33.424;-70.638;2023-06-22T05:53:37;38.72;;;22.63;;
34060;SDS011;20336;-33.424;-70.638;2023-06-22T05:56:03;39.78;;;22.63;;
34060;SDS011;20336;-33.424;-70.638;2023-06-22T05:58:30;39.95;;;22.77;;
34060;SDS011;20336;-33.424;-70.638;2023-06-22T06:00:57;41.63;;;20.90;;
34060;SDS011;20336;-33.424;-70.638;2023-06-22T06:03:26;37.53;;;20.63;;
34060;SDS011;20336;-33.424;-70.638;2023-06-22T06:05:54;32.75;;;18.88;;
34060;SDS011;20336;-33.424;-70.638;2023-06-22T06:08:21;28.80;;;16.63;;
34060;SDS011;20336;-33.424;-70.638;2023-06-22T06:10:48;26.48;;;14.45;;
34060;SDS011;20336;-33.424;-70.638;2023-06-22T06:13:14;22.13;;;13.77;;
34060;SDS011;20336;-33.424;-70.638;2023-06-22T06:15:41;27.85;;;13.57;;
34060;SDS011;20336;-33.424;-70.638;2023-06-22T06:18:08;22.50;;;11.75;;
34060;SDS011;20336;-33.424;-70.638;2023-06-22T06:20:35;17.13;;;10.48;;
34060;SDS011;20336;-33.424;-70.638;2023-06-22T06:23:02;20.33;;;10.43;;
34060;SDS011;20336;-33.424;-70.638;2023-06-22T06:25:29;16.05;;;9.77;;
34060;SDS011;20336;-33.424;-70.638;2023-06-22T06:27:56;18.90;;;8.90;;
34060;SDS011;20336;-33.424;-70.638;2023-06-22T06:30:23;19.67;;;9.27;;
34060;SDS011;20336;-33.424;-70.638;2023-06-22T06:32:50;28.27;;;14.85;;
34060;SDS011;20336;-33.424;-70.638;2023-06-22T06:35:17;29.38;;;14.70;;
34060;SDS011;20336;-33.424;-70.638;2023-06-22T06:37:44;21.40;;;11.20;;
34060;SDS011;20336;-33.424;-70.638;2023-06-22T06:40:12;29.60;;;11.35;;
34060;SDS011;20336;-33.424;-70.638;2023-06-22T06:42:40;25.73;;;12.93;;
34060;SDS011;20336;-33.424;-70.638;2023-06-22T06:45:10;21.20;;;10.90;;
34060;SDS011;20336;-33.424;-70.638;2023-06-22T06:47:37;19.47;;;9.67;;
34060;SDS011;20336;-33.424;-70.638;2023-06-22T06:50:05;17.88;;;9.60;;
34060;SDS011;20336;-33.424;-70.638;2023-06-22T06:52:32;16.93;;;8.63;;
34060;SDS011;20336;-33.424;-70.638;2023-06-22T06:54:59;16.73;;;7.93;;
34060;SDS011;20336;-33.424;-70.638;2023-06-22T06:57:26;24.13;;;9.67;;
34060;SDS011;20336;-33.424;-70.638;2023-06-22T06:59:56;18.37;;;8.87;;
34060;SDS011;20336;-33.424;-70.638;2023-06-22T07:02:23;21.03;;;9.10;;
34060;SDS011;20336;-33.424;-70.638;2023-06-22T07:04:51;18.33;;;9.43;;
34060;SDS011;20336;-33.424;-70.638;2023-06-22T07:07:18;15.73;;;8.40;;
34060;SDS011;20336;-33.424;-70.638;2023-06-22T07:09:45;21.60;;;8.03;;
34060;SDS011;20336;-33.424;-70.638;2023-06-22T07:12:12;15.87;;;7.43;;
34060;SDS011;20336;-33.424;-70.638;2023-06-22T07:14:39;18.13;;;8.17;;
34060;SDS011;20336;-33.424;-70.638;2023-06-22T07:17:06;15.30;;;8.53;;
34060;SDS011;20336;-33.424;-70.638;2023-06-22T07:19:34;22.83;;;8.83;;
34060;SDS011;20336;-33.424;-70.638;2023-06-22T07:22:01;21.73;;;10.63;;
34060;SDS011;20336;-33.424;-70.638;2023-06-22T07:24:28;21.43;;;12.13;;
34060;SDS011;20336;-33.424;-70.638;2023-06-22T07:26:55;24.23;;;12.70;;
34060;SDS011;20336;-33.424;-70.638;2023-06-22T07:29:24;37.40;;;15.77;;
34060;SDS011;20336;-33.424;-70.638;2023-06-22T07:31:52;32.27;;;17.87;;
34060;SDS011;20336;-33.424;-70.638;2023-06-22T07:34:21;37.53;;;19.67;;
34060;SDS011;20336;-33.424;-70.638;2023-06-22T07:36:48;27.77;;;15.47;;
34060;SDS011;20336;-33.424;-70.638;2023-06-22T07:39:15;38.93;;;17.77;;
34060;SDS011;20336;-33.424;-70.638;2023-06-22T07:41:42;37.17;;;19.20;;
34060;SDS011;20336;-33.424;-70.638;2023-06-22T07:44:09;38.93;;;19.87;;
34060;SDS011;20336;-33.424;-70.638;2023-06-22T07:46:36;37.50;;;18.40;;
34060;SDS011;20336;-33.424;-70.638;2023-06-22T07:49:03;35.17;;;18.93;;
34060;SDS011;20336;-33.424;-70.638;2023-06-22T07:51:29;32.40;;;18.20;;
34060;SDS011;20336;-33.424;-70.638;2023-06-22T07:53:56;37.83;;;19.33;;
34060;SDS011;20336;-33.424;-70.638;2023-06-22T07:56:23;34.50;;;16.33;;
34060;SDS011;20336;-33.424;-70.638;2023-06-22T07:58:50;9.20;;;4.87;;
34060;SDS011;20336;-33.424;-70.638;2023-06-22T08:01:18;14.13;;;8.07;;
34060;SDS011;20336;-33.424;-70.638;2023-06-22T08:03:47;14.77;;;7.20;;
34060;SDS011;20336;-33.424;-70.638;2023-06-22T08:06:14;17.23;;;9.37;;
34060;SDS011;20336;-33.424;-70.638;2023-06-22T08:08:42;16.77;;;9.77;;
34060;SDS011;20336;-33.424;-70.638;2023-06-22T08:11:09;26.57;;;14.40;;
34060;SDS011;20336;-33.424;-70.638;2023-06-22T08:13:36;21.63;;;12.40;;
34060;SDS011;20336;-33.424;-70.638;2023-06-22T08:16:02;24.13;;;10.07;;
34060;SDS011;20336;-33.424;-70.638;2023-06-22T08:18:29;11.07;;;7.17;;
34060;SDS011;20336;-33.424;-70.638;2023-06-22T08:20:56;10.73;;;5.70;;
34060;SDS011;20336;-33.424;-70.638;2023-06-22T08:23:23;14.17;;;7.50;;
34060;SDS011;20336;-33.424;-70.638;2023-06-22T08:25:50;18.80;;;11.00;;
34060;SDS011;20336;-33.424;-70.638;2023-06-22T08:28:17;19.37;;;9.70;;
34060;SDS011;20336;-33.424;-70.638;2023-06-22T08:30:44;17.63;;;9.10;;
34060;SDS011;20336;-33.424;-70.638;2023-06-22T08:33:12;15.77;;;9.00;;
34060;SDS011;20336;-33.424;-70.638;2023-06-22T08:35:39;15.03;;;8.07;;
34060;SDS011;20336;-33.424;-70.638;2023-06-22T08:38:05;16.10;;;9.03;;
34060;SDS011;20336;-33.424;-70.638;2023-06-22T08:40:33;14.53;;;8.67;;
34060;SDS011;20336;-33.424;-70.638;2023-06-22T08:43:00;18.53;;;8.47;;
34060;SDS011;20336;-33.424;-70.638;2023-06-22T08:45:26;14.67;;;8.50;;
34060;SDS011;20336;-33.424;-70.638;2023-06-22T08:47:53;10.27;;;6.40;;
34060;SDS011;20336;-33.424;-70.638;2023-06-22T08:50:20;12.97;;;6.97;;
34060;SDS011;20336;-33.424;-70.638;2023-06-22T08:52:47;15.47;;;7.40;;
34060;SDS011;20336;-33.424;-70.638;2023-06-22T08:55:14;10.43;;;4.97;;
34060;SDS011;20336;-33.424;-70.638;2023-06-22T08:57:41;6.60;;;3.63;;
34060;SDS011;20336;-33.424;-70.638;2023-06-22T09:00:09;6.37;;;3.77;;
34060;SDS011;20336;-33.424;-70.638;2023-06-22T09:02:43;5.97;;;2.60;;
34060;SDS011;20336;-33.424;-70.638;2023-06-22T09:05:10;5.73;;;2.93;;
34060;SDS011;20336;-33.424;-70.638;2023-06-22T09:07:37;3.77;;;2.50;;
34060;SDS011;20336;-33.424;-70.638;2023-06-22T09:10:04;5.27;;;3.07;;
34060;SDS011;20336;-33.424;-70.638;2023-06-22T09:12:32;4.97;;;2.77;;
34060;SDS011;20336;-33.424;-70.638;2023-06-22T09:14:59;6.90;;;2.93;;
34060;SDS011;20336;-33.424;-70.638;2023-06-22T09:17:27;9.47;;;3.73;;
34060;SDS011;20336;-33.424;-70.638;2023-06-22T09:19:54;17.33;;;9.23;;
34060;SDS011;20336;-33.424;-70.638;2023-06-22T09:22:21;22.33;;;11.37;;
34060;SDS011;20336;-33.424;-70.638;2023-06-22T09:24:48;31.33;;;15.40;;
34060;SDS011;20336;-33.424;-70.638;2023-06-22T09:27:15;36.27;;;17.60;;
34060;SDS011;20336;-33.424;-70.638;2023-06-22T09:29:42;33.73;;;17.43;;
34060;SDS011;20336;-33.424;-70.638;2023-06-22T09:32:08;43.03;;;21.80;;
34060;SDS011;20336;-33.424;-70.638;2023-06-22T09:34:35;43.73;;;21.70;;
34060;SDS011;20336;-33.424;-70.638;2023-06-22T09:37:02;36.63;;;19.67;;
34060;SDS011;20336;-33.424;-70.638;2023-06-22T09:39:29;43.03;;;20.77;;
34060;SDS011;20336;-33.424;-70.638;2023-06-22T09:41:58;48.30;;;24.10;;
34060;SDS011;20336;-33.424;-70.638;2023-06-22T09:44:25;55.00;;;24.73;;
34060;SDS011;20336;-33.424;-70.638;2023-06-22T09:46:52;38.57;;;21.00;;
34060;SDS011;20336;-33.424;-70.638;2023-06-22T09:49:19;44.07;;;20.20;;
34060;SDS011;20336;-33.424;-70.638;2023-06-22T09:51:46;33.57;;;19.03;;
34060;SDS011;20336;-33.424;-70.638;2023-06-22T09:54:12;38.13;;;20.00;;
34060;SDS011;20336;-33.424;-70.638;2023-06-22T09:56:39;29.07;;;17.07;;
34060;SDS011;20336;-33.424;-70.638;2023-06-22T09:59:06;35.23;;;19.00;;
34060;SDS011;20336;-33.424;-70.638;2023-06-22T10:01:33;28.77;;;16.70;;
34060;SDS011;20336;-33.424;-70.638;2023-06-22T10:04:01;33.73;;;19.20;;
34060;SDS011;20336;-33.424;-70.638;2023-06-22T10:06:28;32.50;;;16.93;;
34060;SDS011;20336;-33.424;-70.638;2023-06-22T10:08:55;15.23;;;9.00;;
34060;SDS011;20336;-33.424;-70.638;2023-06-22T10:11:22;13.87;;;7.40;;
34060;SDS011;20336;-33.424;-70.638;2023-06-22T10:13:54;8.97;;;4.50;;
34060;SDS011;20336;-33.424;-70.638;2023-06-22T10:16:23;6.20;;;3.70;;
34060;SDS011;20336;-33.424;-70.638;2023-06-22T10:18:52;5.50;;;3.00;;
34060;SDS011;20336;-33.424;-70.638;2023-06-22T10:21:18;8.80;;;4.67;;
34060;SDS011;20336;-33.424;-70.638;2023-06-22T10:23:45;11.47;;;5.33;;
34060;SDS011;20336;-33.424;-70.638;2023-06-22T10:26:12;15.63;;;8.93;;
34060;SDS011;20336;-33.424;-70.638;2023-06-22T10:28:39;25.80;;;13.37;;
34060;SDS011;20336;-33.424;-70.638;2023-06-22T10:31:06;30.63;;;18.13;;
34060;SDS011;20336;-33.424;-70.638;2023-06-22T10:33:33;27.90;;;15.73;;
34060;SDS011;20336;-33.424;-70.638;2023-06-22T10:35:59;28.80;;;15.90;;
34060;SDS011;20336;-33.424;-70.638;2023-06-22T10:38:26;35.00;;;18.83;;
34060;SDS011;20336;-33.424;-70.638;2023-06-22T10:40:53;32.93;;;17.27;;
34060;SDS011;20336;-33.424;-70.638;2023-06-22T10:43:20;28.83;;;14.50;;
34060;SDS011;20336;-33.424;-70.638;2023-06-22T10:45:47;27.27;;;15.07;;
34060;SDS011;20336;-33.424;-70.638;2023-06-22T10:48:13;24.37;;;14.20;;
34060;SDS011;20336;-33.424;-70.638;2023-06-22T10:50:40;22.83;;;12.77;;
34060;SDS011;20336;-33.424;-70.638;2023-06-22T10:53:07;20.23;;;10.53;;
34060;SDS011;20336;-33.424;-70.638;2023-06-22T10:55:34;18.93;;;9.77;;
34060;SDS011;20336;-33.424;-70.638;2023-06-22T10:58:01;15.80;;;7.70;;
34060;SDS011;20336;-33.424;-70.638;2023-06-22T11:00:27;9.90;;;5.57;;
34060;SDS011;20336;-33.424;-70.638;2023-06-22T11:02:54;13.03;;;4.27;;
34060;SDS011;20336;-33.424;-70.638;2023-06-22T11:05:22;11.60;;;6.00;;
34060;SDS011;20336;-33.424;-70.638;2023-06-22T11:07:48;10.83;;;6.13;;
34060;SDS011;20336;-33.424;-70.638;2023-06-22T11:10:16;15.10;;;7.17;;
34060;SDS011;20336;-33.424;-70.638;2023-06-22T11:12:42;10.53;;;6.00;;
34060;SDS011;20336;-33.424;-70.638;2023-06-22T11:15:09;9.17;;;5.67;;
34060;SDS011;20336;-33.424;-70.638;2023-06-22T11:17:36;6.63;;;4.57;;
34060;SDS011;20336;-33.424;-70.638;2023-06-22T11:20:03;10.93;;;4.60;;
34060;SDS011;20336;-33.424;-70.638;2023-06-22T11:22:37;9.70;;;4.90;;
34060;SDS011;20336;-33.424;-70.638;2023-06-22T11:25:05;6.63;;;3.70;;
34060;SDS011;20336;-33.424;-70.638;2023-06-22T11:27:32;6.33;;;3.57;;
34060;SDS011;20336;-33.424;-70.638;2023-06-22T11:29:58;8.30;;;5.30;;
34060;SDS011;20336;-33.424;-70.638;2023-06-22T11:32:25;10.33;;;5.93;;
34060;SDS011;20336;-33.424;-70.638;2023-06-22T11:34:52;5.87;;;3.37;;
34060;SDS011;20336;-33.424;-70.638;2023-06-22T11:37:19;4.17;;;2.70;;
34060;SDS011;20336;-33.424;-70.638;2023-06-22T11:39:46;6.90;;;3.40;;
34060;SDS011;20336;-33.424;-70.638;2023-06-22T11:42:13;5.23;;;2.67;;
34060;SDS011;20336;-33.424;-70.638;2023-06-22T11:44:39;3.53;;;2.30;;
34060;SDS011;20336;-33.424;-70.638;2023-06-22T11:47:06;5.00;;;2.80;;
34060;SDS011;20336;-33.424;-70.638;2023-06-22T11:49:33;3.90;;;2.43;;
34060;SDS011;20336;-33.424;-70.638;2023-06-22T11:52:00;4.03;;;2.30;;
34060;SDS011;20336;-33.424;-70.638;2023-06-22T11:54:27;4.50;;;2.30;;
34060;SDS011;20336;-33.424;-70.638;2023-06-22T11:56:53;4.20;;;2.43;;
34060;SDS011;20336;-33.424;-70.638;2023-06-22T11:59:20;3.83;;;2.23;;
34060;SDS011;20336;-33.424;-70.638;2023-06-22T12:01:47;3.40;;;2.13;;
34060;SDS011;20336;-33.424;-70.638;2023-06-22T12:04:16;7.53;;;4.00;;
34060;SDS011;20336;-33.424;-70.638;2023-06-22T12:06:43;11.20;;;4.47;;
34060;SDS011;20336;-33.424;-70.638;2023-06-22T12:09:10;7.23;;;3.77;;
34060;SDS011;20336;-33.424;-70.638;2023-06-22T12:11:39;14.93;;;6.90;;
34060;SDS011;20336;-33.424;-70.638;2023-06-22T12:14:05;6.40;;;3.77;;
34060;SDS011;20336;-33.424;-70.638;2023-06-22T12:16:32;8.97;;;3.67;;
34060;SDS011;20336;-33.424;-70.638;2023-06-22T12:18:59;5.80;;;2.87;;
34060;SDS011;20336;-33.424;-70.638;2023-06-22T12:21:26;15.30;;;8.30;;
34060;SDS011;20336;-33.424;-70.638;2023-06-22T12:23:54;21.23;;;10.10;;
34060;SDS011;20336;-33.424;-70.638;2023-06-22T12:26:21;8.63;;;4.77;;
34060;SDS011;20336;-33.424;-70.638;2023-06-22T12:28:48;8.53;;;4.37;;
34060;SDS011;20336;-33.424;-70.638;2023-06-22T12:31:14;17.93;;;10.60;;
34060;SDS011;20336;-33.424;-70.638;2023-06-22T12:33:41;21.97;;;11.50;;
34060;SDS011;20336;-33.424;-70.638;2023-06-22T12:36:08;18.73;;;9.87;;
34060;SDS011;20336;-33.424;-70.638;2023-06-22T12:38:35;18.13;;;9.93;;
34060;SDS011;20336;-33.424;-70.638;2023-06-22T12:41:02;11.63;;;6.90;;
34060;SDS011;20336;-33.424;-70.638;2023-06-22T12:43:28;13.67;;;7.23;;
34060;SDS011;20336;-33.424;-70.638;2023-06-22T12:45:55;12.10;;;6.07;;
34060;SDS011;20336;-33.424;-70.638;2023-06-22T12:48:22;34.27;;;13.03;;
34060;SDS011;20336;-33.424;-70.638;2023-06-22T12:50:50;10.13;;;4.90;;
34060;SDS011;20336;-33.424;-70.638;2023-06-22T12:53:17;12.47;;;4.70;;
34060;SDS011;20336;-33.424;-70.638;2023-06-22T12:55:44;7.13;;;4.47;;
34060;SDS011;20336;-33.424;-70.638;2023-06-22T12:58:10;13.47;;;5.43;;
34060;SDS011;20336;-33.424;-70.638;2023-06-22T13:00:38;11.53;;;4.87;;
34060;SDS011;20336;-33.424;-70.638;2023-06-22T13:03:05;9.00;;;4.57;;
34060;SDS011;20336;-33.424;-70.638;2023-06-22T13:05:32;6.67;;;3.10;;
34060;SDS011;20336;-33.424;-70.638;2023-06-22T13:08:00;7.13;;;3.10;;
34060;SDS011;20336;-33.424;-70.638;2023-06-22T13:10:27;8.70;;;3.63;;
34060;SDS011;20336;-33.424;-70.638;2023-06-22T13:12:53;3.67;;;2.10;;
34060;SDS011;20336;-33.424;-70.638;2023-06-22T13:15:28;5.23;;;1.70;;
34060;SDS011;20336;-33.424;-70.638;2023-06-22T13:17:55;2.30;;;1.40;;
34060;SDS011;20336;-33.424;-70.638;2023-06-22T13:20:22;6.33;;;1.97;;
34060;SDS011;20336;-33.424;-70.638;2023-06-22T13:22:49;5.53;;;2.30;;
34060;SDS011;20336;-33.424;-70.638;2023-06-22T13:25:16;4.50;;;2.50;;
34060;SDS011;20336;-33.424;-70.638;2023-06-22T13:27:45;6.40;;;3.00;;
34060;SDS011;20336;-33.424;-70.638;2023-06-22T13:30:12;5.80;;;3.07;;
34060;SDS011;20336;-33.424;-70.638;2023-06-22T13:32:38;3.10;;;2.03;;
34060;SDS011;20336;-33.424;-70.638;2023-06-22T13:35:08;5.20;;;2.50;;
34060;SDS011;20336;-33.424;-70.638;2023-06-22T13:37:35;7.57;;;3.30;;
34060;SDS011;20336;-33.424;-70.638;2023-06-22T13:40:02;6.10;;;2.90;;
34060;SDS011;20336;-33.424;-70.638;2023-06-22T13:42:31;4.73;;;1.90;;
34060;SDS011;20336;-33.424;-70.638;2023-06-22T13:44:57;2.07;;;1.10;;
34060;SDS011;20336;-33.424;-70.638;2023-06-22T13:47:24;1.30;;;1.00;;
34060;SDS011;20336;-33.424;-70.638;2023-06-22T13:49:51;1.67;;;0.70;;
34060;SDS011;20336;-33.424;-70.638;2023-06-22T13:52:18;2.13;;;1.07;;
34060;SDS011;20336;-33.424;-70.638;2023-06-22T13:54:44;3.20;;;1.90;;
34060;SDS011;20336;-33.424;-70.638;2023-06-22T13:57:11;5.72;;;2.67;;
34060;SDS011;20336;-33.424;-70.638;2023-06-22T13:59:38;5.90;;;3.00;;
34060;SDS011;20336;-33.424;-70.638;2023-06-22T14:02:05;5.78;;;2.75;;